createdAt,value
2022-07-30T00:00:31.350Z,5.95
2022-07-30T00:03:06.235Z,6.93
2022-07-30T00:05:34.821Z,9.40
2022-07-30T00:08:02.720Z,6.15
2022-07-30T00:10:31.291Z,5.90
2022-07-30T00:12:59.311Z,6.03
2022-07-30T00:15:27.263Z,6.60
2022-07-30T00:17:56.154Z,6.05
2022-07-30T00:20:24.234Z,6.72
2022-07-30T00:22:56.636Z,6.30
2022-07-30T00:25:26.114Z,7.68
2022-07-30T00:27:54.604Z,9.23
2022-07-30T00:30:22.622Z,7.65
2022-07-30T00:32:51.177Z,6.07
2022-07-30T00:35:19.207Z,6.95
2022-07-30T00:37:47.213Z,6.57
2022-07-30T00:40:15.047Z,6.90
2022-07-30T00:42:46.068Z,5.55
2022-07-30T00:45:16.331Z,7.93
2022-07-30T00:47:46.971Z,7.35
2022-07-30T00:50:17.515Z,7.00
2022-07-30T00:52:46.031Z,6.60
2022-07-30T00:55:15.282Z,8.93
2022-07-30T00:57:44.026Z,6.15
2022-07-30T01:00:15.141Z,6.43
2022-07-30T01:02:43.594Z,5.97
2022-07-30T01:05:11.958Z,6.28
2022-07-30T01:07:40.157Z,7.18
2022-07-30T01:10:11.383Z,5.10
2022-07-30T01:12:41.080Z,7.00
2022-07-30T01:15:11.071Z,7.50
2022-07-30T01:17:40.043Z,7.18
2022-07-30T01:20:23.128Z,11.40
2022-07-30T01:22:55.877Z,6.90
2022-07-30T01:25:32.570Z,5.35
2022-07-30T01:28:12.611Z,5.28
2022-07-30T01:30:43.324Z,6.10
2022-07-30T01:33:17.200Z,6.60
2022-07-30T01:35:48.288Z,6.10
2022-07-30T01:43:17.763Z,5.70
2022-07-30T01:45:47.373Z,7.55
2022-07-30T01:48:19.973Z,6.93
2022-07-30T01:50:53.325Z,6.72
2022-07-30T01:53:26.942Z,6.78
2022-07-30T01:55:56.634Z,5.68
2022-07-30T01:58:29.231Z,6.88
2022-07-30T02:01:04.720Z,6.38
2022-07-30T02:03:34.721Z,6.32
2022-07-30T02:06:14.137Z,9.60
2022-07-30T02:11:38.241Z,7.55
2022-07-30T02:14:17.958Z,6.63
2022-07-30T02:16:50.830Z,7.53
2022-07-30T02:19:21.300Z,6.55
2022-07-30T02:21:57.913Z,5.68
2022-07-30T02:24:32.281Z,5.03
2022-07-30T02:27:26.531Z,7.40
2022-07-30T02:29:57.620Z,6.53
2022-07-30T02:32:29.360Z,7.05
2022-07-30T02:35:05.500Z,6.15
2022-07-30T02:37:39.260Z,8.63
2022-07-30T02:40:18.264Z,7.93
2022-07-30T02:42:51.562Z,8.60
2022-07-30T02:45:25.387Z,5.60
2022-07-30T02:48:01.294Z,7.85
2022-07-30T02:50:32.567Z,7.18
2022-07-30T02:53:02.655Z,6.43
2022-07-30T02:55:33.033Z,7.80
2022-07-30T02:58:04.060Z,8.45
2022-07-30T03:00:33.883Z,5.82
2022-07-30T03:03:04.825Z,6.65
2022-07-30T03:05:33.698Z,7.18
2022-07-30T03:08:03.219Z,10.48
2022-07-30T03:10:32.677Z,10.65
2022-07-30T03:13:02.845Z,7.63
2022-07-30T03:15:33.616Z,9.52
2022-07-30T03:18:13.678Z,9.00
2022-07-30T03:20:44.472Z,8.70
2022-07-30T03:23:16.523Z,9.60
2022-07-30T03:25:56.822Z,7.95
2022-07-30T03:28:26.242Z,10.60
2022-07-30T03:30:54.776Z,8.50
2022-07-30T03:33:23.740Z,7.40
2022-07-30T03:36:08.607Z,8.93
2022-07-30T03:38:39.459Z,8.40
2022-07-30T03:41:08.818Z,10.50
2022-07-30T03:43:39.966Z,9.43
2022-07-30T03:46:10.888Z,7.15
2022-07-30T03:48:43.753Z,10.20
2022-07-30T03:51:13.070Z,8.48
2022-07-30T03:53:43.269Z,8.80
2022-07-30T03:56:30.293Z,11.98
2022-07-30T03:59:09.534Z,8.65
2022-07-30T04:04:17.322Z,9.25
2022-07-30T04:06:45.733Z,7.57
2022-07-30T04:09:16.236Z,8.97
2022-07-30T04:11:45.376Z,8.45
2022-07-30T04:14:17.912Z,10.20
2022-07-30T04:16:57.878Z,10.73
2022-07-30T04:19:31.651Z,13.90
2022-07-30T04:22:02.635Z,12.88
2022-07-30T04:24:33.357Z,12.23
2022-07-30T04:27:03.124Z,11.00
2022-07-30T04:29:31.644Z,11.77
2022-07-30T04:32:02.995Z,10.30
2022-07-30T04:34:33.691Z,8.82
2022-07-30T04:37:02.859Z,13.05
2022-07-30T04:39:31.646Z,12.15
2022-07-30T04:41:59.892Z,11.50
2022-07-30T04:44:39.328Z,17.58
2022-07-30T04:47:36.578Z,13.07
2022-07-30T04:50:26.594Z,14.18
2022-07-30T04:52:58.748Z,17.08
2022-07-30T04:55:35.875Z,20.85
2022-07-30T04:58:05.542Z,17.10
2022-07-30T05:00:41.427Z,19.88
2022-07-30T05:03:14.488Z,20.25
2022-07-30T05:05:48.471Z,21.60
2022-07-30T05:08:16.863Z,18.55
2022-07-30T05:10:45.579Z,22.30
2022-07-30T05:13:14.990Z,23.23
2022-07-30T05:15:47.291Z,21.48
2022-07-30T05:18:18.125Z,22.05
2022-07-30T05:20:47.756Z,21.98
2022-07-30T05:23:30.246Z,23.23
2022-07-30T05:26:07.641Z,22.13
2022-07-30T05:28:40.348Z,24.02
2022-07-30T05:31:12.361Z,23.00
2022-07-30T05:33:42.856Z,24.15
2022-07-30T05:36:16.610Z,23.98
2022-07-30T05:38:45.077Z,23.73
2022-07-30T05:41:35.812Z,25.13
2022-07-30T05:44:04.326Z,24.08
2022-07-30T05:46:32.674Z,24.02
2022-07-30T05:49:01.025Z,23.10
2022-07-30T05:51:29.460Z,26.90
2022-07-30T05:53:57.457Z,26.17
2022-07-30T05:56:25.301Z,24.88
2022-07-30T05:59:01.015Z,24.25
2022-07-30T06:01:49.312Z,25.13
2022-07-30T06:04:23.735Z,21.75
2022-07-30T06:06:57.290Z,22.95
2022-07-30T06:09:36.239Z,21.33
2022-07-30T06:12:06.430Z,23.70
2022-07-30T06:14:34.639Z,17.80
2022-07-30T06:17:03.706Z,18.80
2022-07-30T06:19:50.921Z,17.02
2022-07-30T06:22:24.129Z,19.00
2022-07-30T06:24:54.326Z,17.23
2022-07-30T06:27:31.268Z,14.95
2022-07-30T06:30:05.697Z,14.57
2022-07-30T06:32:34.270Z,15.10
2022-07-30T06:35:06.209Z,15.45
2022-07-30T06:38:00.666Z,13.43
2022-07-30T06:40:25.471Z,10.95
2022-07-30T06:43:14.382Z,9.23
2022-07-30T06:45:56.708Z,9.10
2022-07-30T06:48:26.880Z,10.15
2022-07-30T06:50:55.275Z,7.55
2022-07-30T06:53:24.843Z,11.52
2022-07-30T06:56:28.292Z,7.90
2022-07-30T06:59:00.914Z,10.57
2022-07-30T07:01:48.056Z,7.85
2022-07-30T07:04:16.368Z,8.80
2022-07-30T07:06:44.790Z,8.90
2022-07-30T07:09:17.298Z,8.43
2022-07-30T07:12:15.855Z,9.35
2022-07-30T07:14:46.874Z,11.38
2022-07-30T07:17:15.156Z,8.55
2022-07-30T07:20:15.356Z,10.38
2022-07-30T07:22:49.562Z,7.93
2022-07-30T07:25:18.518Z,7.47
2022-07-30T07:27:46.451Z,8.27
2022-07-30T07:30:37.207Z,6.38
2022-07-30T07:33:07.763Z,7.40
2022-07-30T07:35:41.154Z,8.00
2022-07-30T07:38:20.808Z,6.38
2022-07-30T07:40:50.082Z,8.57
2022-07-30T07:43:18.280Z,9.05
2022-07-30T07:45:46.873Z,7.05
2022-07-30T07:48:14.766Z,5.68
2022-07-30T07:50:58.364Z,8.23
2022-07-30T07:53:30.609Z,7.18
2022-07-30T07:55:59.809Z,6.95
2022-07-30T07:58:28.204Z,7.25
2022-07-30T08:01:02.837Z,7.68
2022-07-30T08:03:53.688Z,9.38
2022-07-30T08:06:57.144Z,6.85
2022-07-30T08:09:44.979Z,6.95
2022-07-30T08:12:48.735Z,7.45
2022-07-30T08:15:37.056Z,8.82
2022-07-30T08:18:27.833Z,7.97
2022-07-30T08:21:09.192Z,6.10
2022-07-30T08:23:42.254Z,6.53
2022-07-30T08:26:11.311Z,6.95
2022-07-30T08:28:39.549Z,5.68
2022-07-30T08:31:09.306Z,7.13
2022-07-30T08:33:37.605Z,5.28
2022-07-30T08:36:09.198Z,6.75
2022-07-30T08:38:39.103Z,6.22
2022-07-30T08:41:08.761Z,6.78
2022-07-30T08:43:37.639Z,7.63
2022-07-30T08:46:10.376Z,7.07
2022-07-30T08:48:57.202Z,7.80
2022-07-30T08:51:26.038Z,6.22
2022-07-30T08:54:13.277Z,5.80
2022-07-30T08:56:42.844Z,5.82
2022-07-30T08:59:10.919Z,7.45
2022-07-30T09:01:40.155Z,5.95
2022-07-30T09:04:08.394Z,6.20
2022-07-30T09:06:37.455Z,9.48
2022-07-30T09:09:07.014Z,7.35
2022-07-30T09:11:36.446Z,6.97
2022-07-30T09:14:15.303Z,7.20
2022-07-30T09:16:45.339Z,6.88
2022-07-30T09:19:21.817Z,5.55
2022-07-30T09:22:02.344Z,6.68
2022-07-30T09:24:52.949Z,6.18
2022-07-30T09:27:50.152Z,6.93
2022-07-30T09:30:56.533Z,7.70
2022-07-30T09:33:45.657Z,7.05
2022-07-30T09:36:33.750Z,5.85
2022-07-30T09:39:40.398Z,7.80
2022-07-30T09:42:25.799Z,5.18
2022-07-30T09:45:15.594Z,5.07
2022-07-30T09:47:48.566Z,5.53
2022-07-30T09:50:29.378Z,5.43
2022-07-30T09:53:12.089Z,5.30
2022-07-30T09:55:42.910Z,8.98
2022-07-30T09:58:26.474Z,4.30
2022-07-30T10:01:01.675Z,7.85
2022-07-30T10:03:53.497Z,9.27
2022-07-30T10:06:38.120Z,5.78
2022-07-30T10:09:37.374Z,5.97
2022-07-30T10:12:11.139Z,4.68
2022-07-30T10:14:45.719Z,7.53
2022-07-30T10:17:17.441Z,6.95
2022-07-30T10:20:14.942Z,6.43
2022-07-30T10:23:10.157Z,7.55
2022-07-30T10:26:08.542Z,6.38
2022-07-30T10:29:20.673Z,6.85
2022-07-30T10:31:54.557Z,6.00
2022-07-30T10:34:23.663Z,4.95
2022-07-30T10:37:01.945Z,5.20
2022-07-30T10:39:44.751Z,7.65
2022-07-30T10:42:43.996Z,5.35
2022-07-30T10:45:19.939Z,5.45
2022-07-30T10:47:49.843Z,8.02
2022-07-30T10:50:22.208Z,7.72
2022-07-30T10:56:22.414Z,6.43
2022-07-30T10:59:10.949Z,4.70
2022-07-30T11:01:51.752Z,5.45
2022-07-30T11:04:34.563Z,5.65
2022-07-30T11:07:29.517Z,7.18
2022-07-30T11:15:06.302Z,5.90
2022-07-30T11:18:12.254Z,6.47
2022-07-30T11:23:27.137Z,6.72
2022-07-30T11:26:52.462Z,5.07
2022-07-30T11:34:20.504Z,6.18
2022-07-30T11:37:18.660Z,8.40
2022-07-30T11:39:57.029Z,5.70
2022-07-30T11:42:36.580Z,6.50
2022-07-30T11:45:16.679Z,5.82
2022-07-30T11:47:50.808Z,5.22
2022-07-30T11:50:24.898Z,4.50
2022-07-30T11:52:55.345Z,5.47
2022-07-30T11:55:32.766Z,4.10
2022-07-30T11:58:05.298Z,5.43
2022-07-30T12:00:42.736Z,4.03
2022-07-30T12:03:15.644Z,5.90
2022-07-30T12:05:44.161Z,5.68
2022-07-30T12:08:35.429Z,5.25
2022-07-30T12:11:01.948Z,6.13
2022-07-30T12:13:44.833Z,4.10
2022-07-30T12:16:16.728Z,6.05
2022-07-30T12:18:45.750Z,6.75
2022-07-30T12:21:17.622Z,4.55
2022-07-30T12:23:59.708Z,5.93
2022-07-30T12:26:32.365Z,6.00
2022-07-30T12:29:13.197Z,5.43
2022-07-30T12:31:41.846Z,6.07
2022-07-30T12:34:24.054Z,5.68
2022-07-30T12:36:52.384Z,4.30
2022-07-30T12:39:21.508Z,5.78
2022-07-30T12:41:51.177Z,5.53
2022-07-30T12:44:42.908Z,6.03
2022-07-30T12:47:27.070Z,4.97
2022-07-30T12:49:58.101Z,4.45
2022-07-30T12:52:35.079Z,5.38
2022-07-30T12:55:10.532Z,6.80
2022-07-30T12:57:57.411Z,4.85
2022-07-30T13:00:28.972Z,5.03
2022-07-30T13:02:57.980Z,5.47
2022-07-30T13:05:49.860Z,6.53
2022-07-30T13:08:18.519Z,6.35
2022-07-30T13:11:00.526Z,4.78
2022-07-30T13:13:29.589Z,4.82
2022-07-30T13:16:02.074Z,4.47
2022-07-30T13:18:31.777Z,4.47
2022-07-30T13:21:01.551Z,4.90
2022-07-30T13:23:30.014Z,6.05
2022-07-30T13:25:58.098Z,5.30
2022-07-30T13:28:26.741Z,5.88
2022-07-30T13:30:56.111Z,6.13
2022-07-30T13:33:24.828Z,5.07
2022-07-30T13:35:52.928Z,4.35
2022-07-30T13:38:21.175Z,3.67
2022-07-30T13:40:50.187Z,7.00
2022-07-30T13:43:18.504Z,4.32
2022-07-30T13:45:47.061Z,6.45
2022-07-30T13:50:45.988Z,6.88
2022-07-30T13:53:14.498Z,5.85
2022-07-30T13:55:42.860Z,5.63
2022-07-30T13:58:11.445Z,5.18
2022-07-30T14:00:40.417Z,4.65
2022-07-30T14:03:11.150Z,4.70
2022-07-30T14:05:42.599Z,8.75
2022-07-30T14:08:11.963Z,11.32
2022-07-30T14:10:41.060Z,5.68
2022-07-30T14:13:15.832Z,5.50
2022-07-30T14:15:51.966Z,7.68
2022-07-30T14:18:19.856Z,5.15
2022-07-30T14:20:49.389Z,4.22
2022-07-30T14:23:17.563Z,7.75
2022-07-30T14:25:46.285Z,4.03
2022-07-30T14:28:14.811Z,5.10
2022-07-30T14:30:46.171Z,4.72
2022-07-30T14:33:14.050Z,6.03
2022-07-30T14:35:42.313Z,6.10
2022-07-30T14:38:10.704Z,5.28
2022-07-30T14:40:38.576Z,6.85
2022-07-30T14:43:06.710Z,4.90
2022-07-30T14:45:36.606Z,5.32
2022-07-30T14:48:05.557Z,4.82
2022-07-30T14:50:46.587Z,6.32
2022-07-30T14:53:22.912Z,5.00
2022-07-30T14:55:51.122Z,4.63
2022-07-30T14:58:19.005Z,5.05
2022-07-30T15:00:48.665Z,5.30
2022-07-30T15:03:17.710Z,5.75
2022-07-30T15:05:51.972Z,4.07
2022-07-30T15:08:20.759Z,5.20
2022-07-30T15:10:49.045Z,7.10
2022-07-30T15:13:18.043Z,5.22
2022-07-30T15:15:47.951Z,4.72
2022-07-30T15:18:15.648Z,4.63
2022-07-30T15:20:43.534Z,4.03
2022-07-30T15:23:13.484Z,5.22
2022-07-30T15:25:42.436Z,4.47
2022-07-30T15:28:10.263Z,4.03
2022-07-30T15:30:41.423Z,3.78
2022-07-30T15:35:40.209Z,4.38
2022-07-30T15:38:08.193Z,3.80
2022-07-30T15:40:38.670Z,4.45
2022-07-30T15:43:10.251Z,2.97
2022-07-30T15:45:51.113Z,2.17
2022-07-30T15:48:27.025Z,2.85
2022-07-30T15:51:04.040Z,3.67
2022-07-30T15:53:33.024Z,3.75
2022-07-30T15:56:01.040Z,3.53
2022-07-30T15:58:28.929Z,3.78
2022-07-30T16:00:57.186Z,3.53
2022-07-30T16:03:25.180Z,3.63
2022-07-30T16:05:53.103Z,4.20
2022-07-30T16:08:21.867Z,3.95
2022-07-30T16:10:50.229Z,3.25
2022-07-30T16:13:18.515Z,3.28
2022-07-30T16:15:46.607Z,3.35
2022-07-30T16:18:14.831Z,4.10
2022-07-30T16:20:42.688Z,3.97
2022-07-30T16:23:14.082Z,3.30
2022-07-30T16:25:44.871Z,2.25
2022-07-30T16:28:13.029Z,5.05
2022-07-30T16:30:50.948Z,8.93
2022-07-30T16:33:21.298Z,3.40
2022-07-30T16:35:51.212Z,1.90
2022-07-30T16:38:20.111Z,7.77
2022-07-30T16:40:48.743Z,3.45
2022-07-30T16:43:19.744Z,1.98
2022-07-30T16:45:49.748Z,3.00
2022-07-30T16:48:18.139Z,3.47
2022-07-30T16:50:46.877Z,2.97
2022-07-30T16:53:15.384Z,3.03
2022-07-30T16:55:44.021Z,3.45
2022-07-30T16:58:13.172Z,2.67
2022-07-30T17:00:45.115Z,3.90
2022-07-30T17:03:19.854Z,3.30
2022-07-30T17:05:48.659Z,2.63
2022-07-30T17:08:17.848Z,6.78
2022-07-30T17:10:47.889Z,3.35
2022-07-30T17:13:16.159Z,2.38
2022-07-30T17:15:44.042Z,4.78
2022-07-30T17:18:15.854Z,4.25
2022-07-30T17:20:44.574Z,3.10
2022-07-30T17:23:12.615Z,2.95
2022-07-30T17:25:40.377Z,3.75
2022-07-30T17:28:09.326Z,2.78
2022-07-30T17:30:37.706Z,2.75
2022-07-30T17:33:06.463Z,2.83
2022-07-30T17:35:38.991Z,2.83
2022-07-30T17:38:07.508Z,16.08
2022-07-30T17:40:35.503Z,6.95
2022-07-30T17:43:04.575Z,7.32
2022-07-30T17:48:07.103Z,5.63
2022-07-30T17:50:36.349Z,5.10
2022-07-30T17:53:05.349Z,4.80
2022-07-30T17:55:35.441Z,6.40
2022-07-30T17:58:05.191Z,6.57
2022-07-30T18:00:35.385Z,5.28
2022-07-30T18:03:04.076Z,4.47
2022-07-30T18:05:32.391Z,5.47
2022-07-30T18:08:00.177Z,4.20
2022-07-30T18:10:28.433Z,4.57
2022-07-30T18:12:57.290Z,4.80
2022-07-30T18:15:25.775Z,4.82
2022-07-30T18:17:53.754Z,4.03
2022-07-30T18:20:22.619Z,4.90
2022-07-30T18:22:51.856Z,6.13
2022-07-30T18:25:20.192Z,6.25
2022-07-30T18:27:51.651Z,5.07
2022-07-30T18:30:19.448Z,4.25
2022-07-30T18:32:49.898Z,5.70
2022-07-30T18:37:46.290Z,4.05
2022-07-30T18:40:20.626Z,6.22
2022-07-30T18:42:52.032Z,5.07
2022-07-30T18:45:20.342Z,4.00
2022-07-30T18:47:48.846Z,5.70
2022-07-30T18:50:16.994Z,4.32
2022-07-30T18:52:44.876Z,9.45
2022-07-30T18:55:12.898Z,6.82
2022-07-30T18:57:41.745Z,9.02
2022-07-30T19:00:34.482Z,6.63
2022-07-30T19:03:01.301Z,5.43
2022-07-30T19:05:29.209Z,4.68
2022-07-30T19:07:58.782Z,4.32
2022-07-30T19:10:27.476Z,8.48
2022-07-30T19:12:56.049Z,6.50
2022-07-30T19:15:24.470Z,6.05
2022-07-30T19:17:53.565Z,5.13
2022-07-30T19:20:23.483Z,7.38
2022-07-30T19:22:51.568Z,5.75
2022-07-30T19:25:20.943Z,7.65
2022-07-30T19:30:19.423Z,4.32
2022-07-30T19:32:47.944Z,4.63
2022-07-30T19:35:15.991Z,5.28
2022-07-30T19:37:44.080Z,5.63
2022-07-30T19:40:15.020Z,5.80
2022-07-30T19:42:43.388Z,4.65
2022-07-30T19:45:13.218Z,5.30
2022-07-30T19:47:42.839Z,5.38
2022-07-30T19:50:11.715Z,4.88
2022-07-30T19:52:51.433Z,5.55
2022-07-30T19:55:35.496Z,7.20
2022-07-30T19:58:16.381Z,4.53
2022-07-30T20:00:49.689Z,8.73
2022-07-30T20:03:26.122Z,5.78
2022-07-30T20:06:00.851Z,6.63
2022-07-30T20:08:28.713Z,6.90
2022-07-30T20:10:57.755Z,4.95
2022-07-30T20:13:45.386Z,7.47
2022-07-30T20:16:15.998Z,5.70
2022-07-30T20:18:46.277Z,6.35
2022-07-30T20:21:16.322Z,7.53
2022-07-30T20:23:47.395Z,5.20
2022-07-30T20:26:20.793Z,6.00
2022-07-30T20:28:52.668Z,5.00
2022-07-30T20:31:21.564Z,6.30
2022-07-30T20:33:50.793Z,6.35
2022-07-30T20:36:22.401Z,7.60
2022-07-30T20:41:18.887Z,6.38
2022-07-30T20:43:52.612Z,5.80
2022-07-30T20:46:23.801Z,5.45
2022-07-30T20:48:54.982Z,7.07
2022-07-30T20:51:33.775Z,8.30
2022-07-30T20:54:02.526Z,7.10
2022-07-30T20:56:31.001Z,6.72
2022-07-30T20:58:59.115Z,7.05
2022-07-30T21:01:28.634Z,7.07
2022-07-30T21:03:58.779Z,6.40
2022-07-30T21:06:27.097Z,6.45
2022-07-30T21:08:58.237Z,6.78
2022-07-30T21:11:27.272Z,6.32
2022-07-30T21:13:56.203Z,7.00
2022-07-30T21:16:26.816Z,7.25
2022-07-30T21:18:58.508Z,8.13
2022-07-30T21:21:30.492Z,5.57
2022-07-30T21:24:15.581Z,7.28
2022-07-30T21:26:48.743Z,6.97
2022-07-30T21:29:18.839Z,6.43
2022-07-30T21:32:01.463Z,6.15
2022-07-30T21:34:40.338Z,7.10
2022-07-30T21:37:19.829Z,5.63
2022-07-30T21:39:47.913Z,6.93
2022-07-30T21:42:15.982Z,8.00
2022-07-30T21:44:45.700Z,6.03
2022-07-30T21:47:14.811Z,6.82
2022-07-30T21:49:45.005Z,6.22
2022-07-30T21:52:12.929Z,6.95
2022-07-30T21:54:45.614Z,6.45
2022-07-30T21:57:30.287Z,6.78
2022-07-30T22:00:00.693Z,5.28
2022-07-30T22:02:39.732Z,4.85
2022-07-30T22:05:23.372Z,4.78
2022-07-30T22:07:51.953Z,5.47
2022-07-30T22:10:21.551Z,6.43
2022-07-30T22:12:49.934Z,5.50
2022-07-30T22:15:19.883Z,8.80
2022-07-30T22:17:58.240Z,5.32
2022-07-30T22:20:29.919Z,4.35
2022-07-30T22:23:00.200Z,6.57
2022-07-30T22:25:41.560Z,5.68
2022-07-30T22:28:13.746Z,5.82
2022-07-30T22:30:43.150Z,5.40
2022-07-30T22:33:16.650Z,5.60
2022-07-30T22:35:49.496Z,6.43
2022-07-30T22:38:19.413Z,6.10
2022-07-30T22:40:47.969Z,6.43
2022-07-30T22:43:18.264Z,5.43
2022-07-30T22:45:48.397Z,8.38
2022-07-30T22:48:20.587Z,6.82
2022-07-30T22:50:55.584Z,5.68
2022-07-30T22:54:11.808Z,5.82
2022-07-30T22:56:14.122Z,6.45
2022-07-30T22:58:48.684Z,6.50
2022-07-30T23:01:17.240Z,7.30
2022-07-30T23:03:45.746Z,5.45
2022-07-30T23:06:16.386Z,7.50
2022-07-30T23:08:44.675Z,8.95
2022-07-30T23:11:12.811Z,6.80
2022-07-30T23:13:41.527Z,7.80
2022-07-30T23:16:10.054Z,6.28
2022-07-30T23:18:38.603Z,7.10
2022-07-30T23:21:06.390Z,7.85
2022-07-30T23:23:35.727Z,8.30
2022-07-30T23:26:04.774Z,8.90
2022-07-30T23:28:32.536Z,7.00
2022-07-30T23:31:00.997Z,7.40
2022-07-30T23:33:29.302Z,6.75
2022-07-30T23:35:57.434Z,7.20
2022-07-30T23:38:25.378Z,7.18
2022-07-30T23:40:54.693Z,7.07
2022-07-30T23:43:24.673Z,6.50
2022-07-30T23:45:52.471Z,7.20
2022-07-30T23:48:20.403Z,7.25
2022-07-30T23:50:48.760Z,7.03
2022-07-30T23:53:16.935Z,7.05
2022-07-30T23:55:48.305Z,7.50
2022-07-30T23:58:16.556Z,6.75
